Time;durP1;ratioP1;P1;durP2;ratioP2;P2;SDS_P1;SDS_P2;PMS_P1;PMS_P2;Temp;Humidity;BMP_temperature;BMP_pressure;BME280_temperature;BME280_humidity;BME280_pressure;Samples;Min_cycle;Max_cycle;Signal;HPM_P1;HPM_P2
2021/10/17 09:11:03;;;;;;;11.95;4.07;;;;;;;;;;3847672;37;20118;-61
2021/10/17 09:13:29;;;;;;;14.35;3.92;;;;;;;;;;4402804;32;20498;-65
2021/10/17 09:15:58;;;;;;;4.60;3.97;;;;;;;;;;4375091;32;20221;-62
2021/10/17 09:18:24;;;;;;;10.18;4.82;;;;;;;;;;4387930;32;20193;-63
2021/10/17 09:20:54;;;;;;;7.87;4.82;;;;;;;;;;4403482;32;20096;-61
2021/10/17 09:23:26;;;;;;;5.93;3.95;;;;;;;;;;4403984;32;20101;-60
2021/10/17 09:25:54;;;;;;;6.90;4.35;;;;;;;;;;4402694;32;20130;-60
2021/10/17 09:28:24;;;;;;;12.95;4.78;;;;;;;;;;4403655;32;20102;-63
2021/10/17 09:31:06;;;;;;;5.18;4.68;;;;;;;;;;4402716;32;20120;-64
2021/10/17 09:33:33;;;;;;;4.45;3.92;;;;;;;;;;4404120;32;20112;-66
2021/10/17 09:35:59;;;;;;;11.02;4.57;;;;;;;;;;4404491;32;20133;-66
2021/10/17 09:38:37;;;;;;;7.00;3.72;;;;;;;;;;4389514;32;20279;-66
2021/10/17 09:41:36;;;;;;;4.93;3.80;;;;;;;;;;4404215;32;20109;-66
2021/10/17 09:44:03;;;;;;;8.48;4.32;;;;;;;;;;4403984;32;20112;-66
2021/10/17 09:46:29;;;;;;;8.05;4.07;;;;;;;;;;4404126;32;20114;-66
2021/10/17 09:48:55;;;;;;;11.38;4.28;;;;;;;;;;4403642;32;20211;-67
2021/10/17 09:51:29;;;;;;;9.38;3.37;;;;;;;;;;4404302;32;20116;-66
2021/10/17 09:53:58;;;;;;;5.78;3.22;;;;;;;;;;4403787;32;20089;-65
2021/10/17 09:56:29;;;;;;;4.62;3.12;;;;;;;;;;4390236;32;20089;-66
2021/10/17 09:58:59;;;;;;;4.55;3.42;;;;;;;;;;4402191;32;20173;-65
2021/10/17 10:01:25;;;;;;;12.82;3.90;;;;;;;;;;4403990;32;20663;-66
2021/10/17 10:03:52;;;;;;;5.35;3.37;;;;;;;;;;4403705;32;20186;-67
2021/10/17 10:06:18;;;;;;;6.05;3.87;;;;;;;;;;4402862;32;20125;-66
2021/10/17 10:08:44;;;;;;;7.87;3.42;;;;;;;;;;4403510;32;20196;-66
2021/10/17 10:11:10;;;;;;;15.70;8.82;;;;;;;;;;4404129;32;20180;-66
2021/10/17 10:13:37;;;;;;;5.85;3.90;;;;;;;;;;4402098;32;20093;-66
2021/10/17 10:16:03;;;;;;;4.12;3.60;;;;;;;;;;4403732;32;20539;-67
2021/10/17 10:18:28;;;;;;;5.65;3.55;;;;;;;;;;4402009;32;20589;-67
2021/10/17 10:20:54;;;;;;;7.10;3.80;;;;;;;;;;4398450;32;20101;-66
2021/10/17 10:23:20;;;;;;;5.82;3.35;;;;;;;;;;4393447;32;20585;-67
2021/10/17 10:25:48;;;;;;;4.57;3.37;;;;;;;;;;4392173;32;20140;-67
2021/10/17 10:28:14;;;;;;;11.25;3.85;;;;;;;;;;4392221;32;20174;-66
2021/10/17 10:30:41;;;;;;;8.00;3.80;;;;;;;;;;4391976;32;20109;-66
2021/10/17 10:33:09;;;;;;;14.77;4.00;;;;;;;;;;4393551;32;20094;-66
2021/10/17 10:35:36;;;;;;;7.07;4.03;;;;;;;;;;4392215;32;20124;-69
2021/10/17 10:38:02;;;;;;;6.75;3.87;;;;;;;;;;4366992;32;20101;-66
2021/10/17 10:40:28;;;;;;;6.05;4.12;;;;;;;;;;4393515;32;20097;-66
2021/10/17 10:42:54;;;;;;;6.10;3.65;;;;;;;;;;4392252;32;20101;-64
2021/10/17 10:45:32;;;;;;;7.75;3.55;;;;;;;;;;4393255;32;20108;-63
2021/10/17 10:48:10;;;;;;;13.73;4.15;;;;;;;;;;4393525;32;20101;-64
2021/10/17 10:50:40;;;;;;;8.90;4.65;;;;;;;;;;4393483;32;20093;-64
2021/10/17 10:53:06;;;;;;;10.70;4.05;;;;;;;;;;4393373;32;20097;-64
2021/10/17 10:55:41;;;;;;;12.60;4.07;;;;;;;;;;4393144;32;20113;-62
2021/10/17 10:58:19;;;;;;;7.78;3.50;;;;;;;;;;4393283;32;20113;-62
2021/10/17 11:00:44;;;;;;;6.60;3.97;;;;;;;;;;4378112;32;20094;-60
2021/10/17 11:03:12;;;;;;;8.10;4.35;;;;;;;;;;4389227;32;20101;-60
2021/10/17 11:05:38;;;;;;;6.57;4.43;;;;;;;;;;4378295;32;20116;-60
2021/10/17 11:08:11;;;;;;;8.45;4.28;;;;;;;;;;4376795;32;20101;-64
2021/10/17 11:10:38;;;;;;;12.48;4.20;;;;;;;;;;4378101;32;20100;-62
2021/10/17 11:13:05;;;;;;;4.55;3.05;;;;;;;;;;4352140;32;20105;-60
2021/10/17 11:15:33;;;;;;;5.30;3.53;;;;;;;;;;4376925;32;20113;-64
2021/10/17 11:18:04;;;;;;;4.95;3.78;;;;;;;;;;4378442;32;20117;-63
2021/10/17 11:20:41;;;;;;;6.72;4.72;;;;;;;;;;4393218;32;20110;-62
2021/10/17 11:23:16;;;;;;;5.78;4.30;;;;;;;;;;4393312;32;20104;-63
2021/10/17 11:25:59;;;;;;;7.10;4.75;;;;;;;;;;4391705;32;20184;-62
2021/10/17 11:28:26;;;;;;;10.35;5.78;;;;;;;;;;4393047;32;20094;-63
2021/10/17 11:31:11;;;;;;;8.98;4.28;;;;;;;;;;4392928;32;20592;-64
2021/10/17 11:33:38;;;;;;;6.50;4.45;;;;;;;;;;4390633;32;20094;-64
2021/10/17 11:36:05;;;;;;;9.70;4.55;;;;;;;;;;4378977;32;20210;-63
2021/10/17 11:38:31;;;;;;;7.97;4.47;;;;;;;;;;4392944;32;20081;-64
2021/10/17 11:41:02;;;;;;;5.82;4.18;;;;;;;;;;4393175;32;20125;-64
2021/10/17 11:43:50;;;;;;;10.80;4.28;;;;;;;;;;4392922;32;20416;-64
2021/10/17 11:46:18;;;;;;;10.15;4.50;;;;;;;;;;4391634;32;20196;-64
2021/10/17 11:48:44;;;;;;;7.55;4.25;;;;;;;;;;4392782;32;20105;-64
2021/10/17 11:51:11;;;;;;;7.70;4.80;;;;;;;;;;4392984;32;20097;-61
2021/10/17 11:53:37;;;;;;;8.77;4.20;;;;;;;;;;4392820;32;20110;-59
2021/10/17 11:56:08;;;;;;;12.27;7.03;;;;;;;;;;4391612;32;20196;-60
2021/10/17 11:58:35;;;;;;;13.80;6.20;;;;;;;;;;4392803;32;20107;-60
2021/10/17 12:01:17;;;;;;;9.95;5.68;;;;;;;;;;4391636;32;20184;-60
2021/10/17 12:03:53;;;;;;;12.32;5.55;;;;;;;;;;4392778;32;20106;-61
2021/10/17 12:06:20;;;;;;;16.27;8.65;;;;;;;;;;4393003;32;20180;-60
2021/10/17 12:08:53;;;;;;;33.05;11.80;;;;;;;;;;4392474;32;20121;-60
2021/10/17 12:11:19;;;;;;;20.27;10.20;;;;;;;;;;4378073;32;20477;-60
2021/10/17 12:13:50;;;;;;;20.50;10.85;;;;;;;;;;4377490;32;20113;-60
2021/10/17 12:16:20;;;;;;;16.33;9.27;;;;;;;;;;4377873;32;20121;-60
2021/10/17 12:18:51;;;;;;;15.70;8.70;;;;;;;;;;4382857;32;20109;-60
2021/10/17 12:21:20;;;;;;;18.15;9.75;;;;;;;;;;4391444;32;20144;-60
2021/10/17 12:23:46;;;;;;;19.17;9.30;;;;;;;;;;4378538;32;20460;-60
2021/10/17 12:26:16;;;;;;;25.80;12.18;;;;;;;;;;4392876;32;20232;-60
2021/10/17 12:28:42;;;;;;;30.50;17.48;;;;;;;;;;4392603;32;20076;-59
2021/10/17 12:31:08;;;;;;;34.33;19.33;;;;;;;;;;4391049;32;20151;-59
2021/10/17 12:33:38;;;;;;;21.48;14.70;;;;;;;;;;4392343;32;20187;-59
2021/10/17 12:36:04;;;;;;;26.08;15.60;;;;;;;;;;4392717;32;20128;-60
2021/10/17 12:38:35;;;;;;;20.05;9.60;;;;;;;;;;4392660;32;20112;-60
2021/10/17 12:41:04;;;;;;;22.73;13.70;;;;;;;;;;4390949;32;20120;-61
2021/10/17 12:43:31;;;;;;;41.25;23.12;;;;;;;;;;4390610;32;20117;-59
2021/10/17 12:46:12;;;;;;;39.40;21.83;;;;;;;;;;4392391;32;20095;-61
2021/10/17 12:48:39;;;;;;;36.90;19.35;;;;;;;;;;4391034;32;20432;-61
2021/10/17 12:51:34;;;;;;;20.35;12.18;;;;;;;;;;4392265;32;20124;-61
2021/10/17 12:54:04;;;;;;;15.35;10.02;;;;;;;;;;4392229;32;20197;-60
2021/10/17 12:56:30;;;;;;;18.62;12.80;;;;;;;;;;4392284;32;20110;-59
2021/10/17 12:59:13;;;;;;;25.27;15.95;;;;;;;;;;4390826;32;20622;-60
2021/10/17 13:02:07;;;;;;;26.75;18.48;;;;;;;;;;4390624;32;20090;-60
2021/10/17 13:04:50;;;;;;;25.20;17.00;;;;;;;;;;4390597;32;20673;-64
2021/10/17 13:07:29;;;;;;;21.83;16.58;;;;;;;;;;4392223;32;20181;-61
2021/10/17 13:10:01;;;;;;;27.25;15.52;;;;;;;;;;4392125;32;20245;-61
2021/10/17 13:12:27;;;;;;;20.95;12.70;;;;;;;;;;4392070;32;20535;-61
2021/10/17 13:15:01;;;;;;;18.50;11.05;;;;;;;;;;4392126;32;20109;-61
2021/10/17 13:17:27;;;;;;;21.17;12.25;;;;;;;;;;4391062;32;20448;-58
2021/10/17 13:19:53;;;;;;;26.23;13.90;;;;;;;;;;4386374;32;20531;-61
2021/10/17 13:22:19;;;;;;;27.65;16.45;;;;;;;;;;4383461;32;20480;-63
2021/10/17 13:24:45;;;;;;;64.22;35.05;;;;;;;;;;4383239;32;20283;-62
2021/10/17 13:27:11;;;;;;;92.62;49.67;;;;;;;;;;4382678;32;20455;-61
2021/10/17 13:29:39;;;;;;;69.53;40.35;;;;;;;;;;4395317;32;20502;-61
2021/10/17 13:32:06;;;;;;;48.08;29.90;;;;;;;;;;4387164;32;20109;-61
2021/10/17 13:34:32;;;;;;;38.35;21.95;;;;;;;;;;4396223;32;20547;-61
2021/10/17 13:36:58;;;;;;;46.58;26.30;;;;;;;;;;4384276;32;20133;-60
2021/10/17 13:39:23;;;;;;;34.95;23.08;;;;;;;;;;4388194;32;20097;-59
2021/10/17 13:41:50;;;;;;;34.70;19.80;;;;;;;;;;4390304;32;20109;-60
2021/10/17 13:44:17;;;;;;;32.95;18.95;;;;;;;;;;4390577;32;20318;-61
2021/10/17 13:46:43;;;;;;;31.92;18.87;;;;;;;;;;4391853;32;20097;-61
2021/10/17 13:49:09;;;;;;;36.53;22.50;;;;;;;;;;4384645;32;20136;-61
2021/10/17 13:51:35;;;;;;;47.65;22.45;;;;;;;;;;4398490;32;20117;-59
2021/10/17 13:54:01;;;;;;;33.13;21.77;;;;;;;;;;4389946;32;20140;-60
2021/10/17 13:56:27;;;;;;;30.17;19.80;;;;;;;;;;4392657;32;20224;-59
2021/10/17 13:58:53;;;;;;;29.67;18.60;;;;;;;;;;4392396;32;20110;-61
2021/10/17 14:01:19;;;;;;;28.12;16.95;;;;;;;;;;4393881;32;20124;-59
2021/10/17 14:03:46;;;;;;;23.65;16.05;;;;;;;;;;4394091;32;20428;-60
2021/10/17 14:06:12;;;;;;;23.58;13.75;;;;;;;;;;4400371;32;20476;-58
2021/10/17 14:08:38;;;;;;;26.60;16.27;;;;;;;;;;4377397;32;20101;-61
2021/10/17 14:11:06;;;;;;;25.00;15.52;;;;;;;;;;4389745;32;20136;-62
2021/10/17 14:13:32;;;;;;;24.52;16.05;;;;;;;;;;4389749;32;20079;-62
2021/10/17 14:16:00;;;;;;;23.65;13.27;;;;;;;;;;4389787;32;20173;-62
2021/10/17 14:18:27;;;;;;;23.02;13.82;;;;;;;;;;4383643;32;20589;-63
2021/10/17 14:20:53;;;;;;;27.52;14.87;;;;;;;;;;4392966;32;20197;-64
2021/10/17 14:23:19;;;;;;;23.90;11.40;;;;;;;;;;4380955;32;20193;-62
2021/10/17 14:25:45;;;;;;;20.40;11.32;;;;;;;;;;4394393;32;20117;-62
2021/10/17 14:28:10;;;;;;;14.93;9.20;;;;;;;;;;4393848;32;20532;-61
2021/10/17 14:30:40;;;;;;;22.75;14.15;;;;;;;;;;4393317;32;20120;-61
2021/10/17 14:33:06;;;;;;;34.95;20.70;;;;;;;;;;4394368;32;20320;-62
2021/10/17 14:35:31;;;;;;;33.00;17.27;;;;;;;;;;4380071;32;20110;-62
2021/10/17 14:37:57;;;;;;;29.17;17.05;;;;;;;;;;4393762;32;20117;-69
2021/10/17 14:40:23;;;;;;;29.23;16.45;;;;;;;;;;4393958;32;20209;-66
2021/10/17 14:42:49;;;;;;;23.38;14.65;;;;;;;;;;4393719;32;20552;-63
2021/10/17 14:45:15;;;;;;;22.23;13.02;;;;;;;;;;4379483;32;20113;-63
2021/10/17 14:47:41;;;;;;;20.37;11.85;;;;;;;;;;4379633;32;20114;-60
2021/10/17 14:50:07;;;;;;;27.87;13.38;;;;;;;;;;4391823;32;20217;-60
2021/10/17 14:52:33;;;;;;;19.55;12.63;;;;;;;;;;4393677;32;20136;-59
2021/10/17 14:54:59;;;;;;;21.92;12.70;;;;;;;;;;4391912;32;20536;-58
2021/10/17 14:57:25;;;;;;;19.20;13.45;;;;;;;;;;4393444;32;20555;-60
2021/10/17 14:59:51;;;;;;;20.67;12.18;;;;;;;;;;4393269;32;20310;-59
2021/10/17 15:02:17;;;;;;;18.05;10.65;;;;;;;;;;4393439;32;20102;-58
2021/10/17 15:04:43;;;;;;;22.27;10.32;;;;;;;;;;4393237;32;20115;-60
2021/10/17 15:07:09;;;;;;;15.40;9.38;;;;;;;;;;4393300;32;20090;-58
2021/10/17 15:09:35;;;;;;;18.60;10.52;;;;;;;;;;4393166;32;20090;-58
2021/10/17 15:12:02;;;;;;;15.48;10.38;;;;;;;;;;4393227;32;20094;-59
2021/10/17 15:14:28;;;;;;;15.38;9.73;;;;;;;;;;4393429;32;20122;-59
2021/10/17 15:16:54;;;;;;;18.50;11.10;;;;;;;;;;4393304;32;20105;-59
2021/10/17 15:19:20;;;;;;;19.20;12.48;;;;;;;;;;4392916;32;20115;-58
2021/10/17 15:21:46;;;;;;;22.17;15.18;;;;;;;;;;4393371;32;20097;-60
2021/10/17 15:24:15;;;;;;;22.70;15.82;;;;;;;;;;4391939;32;20440;-61
2021/10/17 15:26:44;;;;;;;20.25;16.20;;;;;;;;;;4393497;32;20137;-62
2021/10/17 15:29:11;;;;;;;17.12;12.20;;;;;;;;;;4392918;32;20073;-62
2021/10/17 15:31:37;;;;;;;22.35;13.82;;;;;;;;;;4393097;32;20089;-61
2021/10/17 15:34:04;;;;;;;21.75;14.35;;;;;;;;;;4393162;32;20186;-60
2021/10/17 15:36:29;;;;;;;28.33;16.27;;;;;;;;;;4379176;32;20124;-61
2021/10/17 15:38:57;;;;;;;29.40;16.75;;;;;;;;;;4392960;32;20085;-61
2021/10/17 15:41:23;;;;;;;36.25;18.65;;;;;;;;;;4392967;32;20113;-61
2021/10/17 15:43:50;;;;;;;39.85;18.52;;;;;;;;;;4392999;32;20124;-61
2021/10/17 15:46:19;;;;;;;40.72;20.77;;;;;;;;;;4393242;32;20506;-61
2021/10/17 15:48:45;;;;;;;40.88;20.65;;;;;;;;;;4391093;32;20108;-59
2021/10/17 15:51:11;;;;;;;34.13;18.17;;;;;;;;;;4392979;32;20520;-60
2021/10/17 15:53:38;;;;;;;31.48;13.25;;;;;;;;;;4392894;32;20155;-59
2021/10/17 15:56:04;;;;;;;20.17;12.02;;;;;;;;;;4379230;32;20469;-60
2021/10/17 15:58:30;;;;;;;24.08;12.70;;;;;;;;;;4392916;32;20089;-61
2021/10/17 16:00:58;;;;;;;25.27;14.00;;;;;;;;;;4392806;32;20098;-60
2021/10/17 16:03:24;;;;;;;24.75;15.50;;;;;;;;;;4379121;32;20117;-65
2021/10/17 16:05:50;;;;;;;23.55;14.18;;;;;;;;;;4392988;32;20194;-64
2021/10/17 16:08:16;;;;;;;25.70;13.00;;;;;;;;;;4393164;32;20518;-66
2021/10/17 16:10:41;;;;;;;25.52;15.13;;;;;;;;;;4393024;32;20110;-66
2021/10/17 16:13:07;;;;;;;28.40;15.65;;;;;;;;;;4379438;32;20113;-66
2021/10/17 16:15:33;;;;;;;29.85;18.35;;;;;;;;;;4392862;32;20223;-64
2021/10/17 16:17:59;;;;;;;30.48;17.75;;;;;;;;;;4390957;32;20117;-64
2021/10/17 16:20:25;;;;;;;35.78;19.37;;;;;;;;;;4377251;32;20472;-67
2021/10/17 16:22:54;;;;;;;35.58;21.65;;;;;;;;;;4377941;32;20136;-65
2021/10/17 16:25:20;;;;;;;34.97;21.95;;;;;;;;;;4378234;32;20113;-66
2021/10/17 16:27:47;;;;;;;29.30;18.52;;;;;;;;;;4377938;32;20092;-65
2021/10/17 16:30:14;;;;;;;26.45;15.90;;;;;;;;;;4378041;32;20527;-69
2021/10/17 16:32:41;;;;;;;25.25;16.10;;;;;;;;;;4378097;32;20112;-69
2021/10/17 16:35:07;;;;;;;26.60;19.75;;;;;;;;;;4377916;32;20166;-69
2021/10/17 16:37:34;;;;;;;27.60;14.75;;;;;;;;;;4377609;32;20105;-69
2021/10/17 16:40:00;;;;;;;31.95;16.45;;;;;;;;;;4377782;32;20132;-69
2021/10/17 16:42:26;;;;;;;28.27;16.77;;;;;;;;;;4376341;32;20113;-68
2021/10/17 16:44:52;;;;;;;33.28;20.15;;;;;;;;;;4377570;32;20121;-69
2021/10/17 16:47:18;;;;;;;34.28;19.98;;;;;;;;;;4377255;32;20125;-69
2021/10/17 16:49:44;;;;;;;29.90;18.35;;;;;;;;;;4375970;32;20120;-67
2021/10/17 16:52:10;;;;;;;27.77;15.82;;;;;;;;;;4377545;32;20521;-67
2021/10/17 16:54:39;;;;;;;26.33;14.27;;;;;;;;;;4377699;32;20086;-68
2021/10/17 16:57:05;;;;;;;23.60;12.68;;;;;;;;;;4376021;32;20565;-65
2021/10/17 16:59:31;;;;;;;22.27;9.80;;;;;;;;;;4375968;32;20110;-68
2021/10/17 17:01:57;;;;;;;15.77;9.73;;;;;;;;;;4377318;32;20437;-69
2021/10/17 17:04:23;;;;;;;18.33;10.88;;;;;;;;;;4375918;32;20106;-68
2021/10/17 17:06:49;;;;;;;15.32;10.52;;;;;;;;;;4377668;32;20198;-69
2021/10/17 17:09:15;;;;;;;17.60;10.02;;;;;;;;;;4375480;32;20101;-69
2021/10/17 17:11:41;;;;;;;16.55;9.73;;;;;;;;;;4377133;32;20113;-69
2021/10/17 17:14:07;;;;;;;17.17;11.40;;;;;;;;;;4377053;32;20105;-70
2021/10/17 17:16:33;;;;;;;19.62;10.63;;;;;;;;;;4377171;32;20112;-70
2021/10/17 17:18:59;;;;;;;19.60;11.35;;;;;;;;;;4385208;32;20126;-70
2021/10/17 17:21:26;;;;;;;21.73;11.43;;;;;;;;;;4392579;32;20113;-69
2021/10/17 17:23:52;;;;;;;18.65;11.73;;;;;;;;;;4392184;32;20580;-70
2021/10/17 17:26:18;;;;;;;16.95;10.98;;;;;;;;;;4392107;32;20104;-68
2021/10/17 17:28:45;;;;;;;22.08;10.95;;;;;;;;;;4390004;32;20097;-69
2021/10/17 17:31:11;;;;;;;18.37;11.25;;;;;;;;;;4392107;32;20106;-69
2021/10/17 17:33:37;;;;;;;13.85;9.25;;;;;;;;;;4380660;32;20109;-69
2021/10/17 17:36:04;;;;;;;18.00;9.65;;;;;;;;;;4392641;32;20098;-69
2021/10/17 17:38:30;;;;;;;14.43;9.48;;;;;;;;;;4394257;32;20262;-69
2021/10/17 17:40:56;;;;;;;17.00;9.30;;;;;;;;;;4394282;32;20109;-68
2021/10/17 17:43:22;;;;;;;17.45;9.57;;;;;;;;;;4393918;32;20099;-68
2021/10/17 17:45:48;;;;;;;22.37;10.52;;;;;;;;;;4394274;32;20196;-67
2021/10/17 17:48:14;;;;;;;19.23;10.32;;;;;;;;;;4394230;32;20089;-67
2021/10/17 17:50:40;;;;;;;13.65;10.20;;;;;;;;;;4392756;32;20471;-67
2021/10/17 17:53:06;;;;;;;18.17;9.25;;;;;;;;;;4394049;32;20090;-67
2021/10/17 17:55:32;;;;;;;15.88;9.65;;;;;;;;;;4394014;32;20444;-67
2021/10/17 17:57:58;;;;;;;16.10;10.18;;;;;;;;;;4394102;32;20093;-69
2021/10/17 18:00:24;;;;;;;15.13;10.10;;;;;;;;;;4394071;32;20282;-69
2021/10/17 18:02:50;;;;;;;12.73;9.00;;;;;;;;;;4393910;32;20129;-69
2021/10/17 18:05:16;;;;;;;19.20;10.35;;;;;;;;;;4393873;32;20100;-69
2021/10/17 18:07:43;;;;;;;19.15;11.75;;;;;;;;;;4393706;32;20148;-68
2021/10/17 18:10:09;;;;;;;20.50;12.10;;;;;;;;;;4393609;32;20492;-68
2021/10/17 18:12:35;;;;;;;19.15;12.37;;;;;;;;;;4392624;32;20094;-69
2021/10/17 18:15:03;;;;;;;24.37;11.65;;;;;;;;;;4393664;32;20202;-68
2021/10/17 18:17:29;;;;;;;18.73;11.20;;;;;;;;;;4394281;32;20112;-69
2021/10/17 18:19:55;;;;;;;20.15;12.07;;;;;;;;;;4393693;32;20603;-68
2021/10/17 18:22:21;;;;;;;24.35;11.75;;;;;;;;;;4392601;32;20122;-69
2021/10/17 18:24:47;;;;;;;16.87;11.35;;;;;;;;;;4393829;32;20101;-68
2021/10/17 18:27:13;;;;;;;19.75;9.63;;;;;;;;;;4394027;32;20109;-68
2021/10/17 18:29:39;;;;;;;18.33;8.68;;;;;;;;;;4393627;32;20132;-69
2021/10/17 18:32:05;;;;;;;12.77;8.18;;;;;;;;;;4393914;32;20226;-72
2021/10/17 18:34:31;;;;;;;11.52;8.55;;;;;;;;;;4394162;32;20110;-67
2021/10/17 18:36:57;;;;;;;23.55;8.00;;;;;;;;;;4392585;32;20143;-67
2021/10/17 18:39:23;;;;;;;14.20;8.75;;;;;;;;;;4393768;32;20117;-67
2021/10/17 18:41:49;;;;;;;12.45;7.30;;;;;;;;;;4393533;32;20169;-67
2021/10/17 18:44:15;;;;;;;10.65;6.87;;;;;;;;;;4393752;32;20678;-67
2021/10/17 18:46:41;;;;;;;11.68;7.65;;;;;;;;;;4394052;32;20491;-67
2021/10/17 18:49:07;;;;;;;18.60;7.70;;;;;;;;;;4392093;32;20308;-69
2021/10/17 18:51:33;;;;;;;11.60;7.50;;;;;;;;;;4392572;32;20101;-66
2021/10/17 18:54:00;;;;;;;24.08;10.60;;;;;;;;;;4393749;32;20136;-67
2021/10/17 18:56:27;;;;;;;11.95;6.47;;;;;;;;;;4393688;32;20112;-67
2021/10/17 18:58:53;;;;;;;13.25;6.93;;;;;;;;;;4392288;32;20112;-69
2021/10/17 19:01:19;;;;;;;9.52;6.82;;;;;;;;;;4392209;32;20105;-69
2021/10/17 19:03:45;;;;;;;10.95;7.22;;;;;;;;;;4379614;32;20186;-67
2021/10/17 19:06:11;;;;;;;14.25;7.12;;;;;;;;;;4393518;32;20152;-67
2021/10/17 19:08:37;;;;;;;10.70;7.30;;;;;;;;;;4393245;32;20120;-66
2021/10/17 19:11:03;;;;;;;10.88;7.60;;;;;;;;;;4379591;32;20109;-65
2021/10/17 19:13:28;;;;;;;11.68;7.12;;;;;;;;;;4393726;32;20093;-66
2021/10/17 19:15:54;;;;;;;11.12;7.28;;;;;;;;;;4393369;32;20147;-65
2021/10/17 19:18:20;;;;;;;14.15;6.80;;;;;;;;;;4393245;32;20197;-67
2021/10/17 19:20:46;;;;;;;12.85;6.68;;;;;;;;;;4391845;32;20097;-63
2021/10/17 19:23:13;;;;;;;12.27;6.80;;;;;;;;;;4393244;32;20124;-63
2021/10/17 19:25:39;;;;;;;12.48;5.72;;;;;;;;;;4393338;32;20110;-64
2021/10/17 19:28:05;;;;;;;11.05;6.18;;;;;;;;;;4393363;32;20117;-64
2021/10/17 19:30:33;;;;;;;9.43;6.07;;;;;;;;;;4391902;32;20130;-64
2021/10/17 19:32:59;;;;;;;9.57;5.65;;;;;;;;;;4391727;32;20198;-64
2021/10/17 19:35:25;;;;;;;9.00;5.37;;;;;;;;;;4391788;32;20125;-64
2021/10/17 19:37:55;;;;;;;15.15;5.80;;;;;;;;;;4393060;32;20180;-64
2021/10/17 19:40:23;;;;;;;11.52;7.00;;;;;;;;;;4392007;32;20095;-65
2021/10/17 19:42:49;;;;;;;10.05;5.50;;;;;;;;;;4392941;32;20197;-64
2021/10/17 19:45:15;;;;;;;9.90;5.65;;;;;;;;;;4393386;32;20128;-65
2021/10/17 19:47:41;;;;;;;10.45;5.85;;;;;;;;;;4393202;32;20586;-65
2021/10/17 19:50:08;;;;;;;10.60;5.55;;;;;;;;;;4391527;32;20094;-65
2021/10/17 19:52:34;;;;;;;18.08;5.35;;;;;;;;;;4391767;32;20129;-65
2021/10/17 19:55:01;;;;;;;7.35;5.47;;;;;;;;;;4390640;32;20199;-65
2021/10/17 19:57:29;;;;;;;10.30;5.28;;;;;;;;;;4393206;32;20117;-63
2021/10/17 19:59:56;;;;;;;12.15;5.78;;;;;;;;;;4393255;32;20121;-64
2021/10/17 20:02:25;;;;;;;13.70;6.30;;;;;;;;;;4393379;32;20502;-64
2021/10/17 20:04:51;;;;;;;9.68;5.32;;;;;;;;;;4391489;32;20192;-64
2021/10/17 20:07:19;;;;;;;10.02;6.87;;;;;;;;;;4393124;32;20105;-64
2021/10/17 20:09:45;;;;;;;11.12;5.75;;;;;;;;;;4392858;32;20219;-64
2021/10/17 20:12:12;;;;;;;12.18;5.22;;;;;;;;;;4391975;32;20121;-64
2021/10/17 20:14:38;;;;;;;9.10;5.25;;;;;;;;;;4390981;32;20105;-65
2021/10/17 20:17:04;;;;;;;9.45;5.20;;;;;;;;;;4393316;32;20125;-61
2021/10/17 20:19:30;;;;;;;7.40;5.22;;;;;;;;;;4392474;32;20209;-59
2021/10/17 20:21:56;;;;;;;12.02;5.30;;;;;;;;;;4391155;32;20121;-59
2021/10/17 20:24:22;;;;;;;15.20;6.10;;;;;;;;;;4391383;32;20121;-59
2021/10/17 20:26:48;;;;;;;8.98;5.20;;;;;;;;;;4392781;32;20129;-59
2021/10/17 20:29:14;;;;;;;9.45;5.47;;;;;;;;;;4392755;32;20526;-58
2021/10/17 20:31:40;;;;;;;10.10;6.35;;;;;;;;;;4393078;32;20097;-59
2021/10/17 20:34:17;;;;;;;8.43;5.10;;;;;;;;;;4391123;32;20207;-58
2021/10/17 20:37:06;;;;;;;6.87;4.90;;;;;;;;;;4392728;32;20100;-59
2021/10/17 20:39:29;;;;;;;8.88;5.70;;;;;;;;;;4392540;32;20089;-59
2021/10/17 20:42:09;;;;;;;9.93;5.28;;;;;;;;;;4391162;32;20194;-59
2021/10/17 20:44:36;;;;;;;7.57;4.72;;;;;;;;;;4392857;32;20194;-59
2021/10/17 20:47:04;;;;;;;7.55;5.37;;;;;;;;;;4391185;32;20190;-59
2021/10/17 20:49:30;;;;;;;6.22;4.60;;;;;;;;;;4378371;32;20789;-60
2021/10/17 20:51:56;;;;;;;7.32;4.25;;;;;;;;;;4391126;32;20100;-57
2021/10/17 20:54:22;;;;;;;7.80;4.15;;;;;;;;;;4392514;32;20209;-60
2021/10/17 20:56:48;;;;;;;11.32;4.60;;;;;;;;;;4392873;32;20117;-60
2021/10/17 20:59:15;;;;;;;10.55;4.43;;;;;;;;;;4390782;32;20109;-60
2021/10/17 21:01:41;;;;;;;5.03;3.80;;;;;;;;;;4392372;32;20125;-58
2021/10/17 21:04:07;;;;;;;7.32;3.80;;;;;;;;;;4392121;32;20536;-59
2021/10/17 21:06:33;;;;;;;8.77;3.10;;;;;;;;;;4392173;32;20113;-59
2021/10/17 21:08:59;;;;;;;8.65;3.55;;;;;;;;;;4391947;32;20229;-60
2021/10/17 21:11:26;;;;;;;7.65;3.45;;;;;;;;;;4392197;32;20120;-60
2021/10/17 21:13:52;;;;;;;4.28;3.08;;;;;;;;;;4392425;32;20209;-61
2021/10/17 21:16:18;;;;;;;8.48;3.22;;;;;;;;;;4391204;32;20612;-59
2021/10/17 21:18:44;;;;;;;5.62;3.35;;;;;;;;;;4391941;32;20109;-59
2021/10/17 21:21:10;;;;;;;6.65;3.83;;;;;;;;;;4392184;32;20097;-58
2021/10/17 21:23:36;;;;;;;8.85;3.42;;;;;;;;;;4392203;32;20101;-58
2021/10/17 21:26:02;;;;;;;4.05;3.10;;;;;;;;;;4392186;32;20448;-58
2021/10/17 21:28:28;;;;;;;10.10;3.72;;;;;;;;;;4392193;32;20224;-59
2021/10/17 21:30:53;;;;;;;6.78;3.62;;;;;;;;;;4392138;32;20109;-63
2021/10/17 21:33:22;;;;;;;5.87;3.30;;;;;;;;;;4390767;32;20125;-64
2021/10/17 21:35:48;;;;;;;9.18;3.50;;;;;;;;;;4392240;32;20173;-63
2021/10/17 21:38:14;;;;;;;6.37;3.80;;;;;;;;;;4392125;32;20121;-63
2021/10/17 21:40:40;;;;;;;7.85;4.85;;;;;;;;;;4392067;32;20117;-63
2021/10/17 21:43:06;;;;;;;7.45;4.60;;;;;;;;;;4392120;32;20132;-64
2021/10/17 21:45:32;;;;;;;6.28;3.70;;;;;;;;;;4391816;32;20197;-63
2021/10/17 21:47:58;;;;;;;7.72;4.12;;;;;;;;;;4390413;32;20125;-63
2021/10/17 21:50:24;;;;;;;5.50;3.75;;;;;;;;;;4391665;32;20194;-62
2021/10/17 21:52:49;;;;;;;10.10;3.80;;;;;;;;;;4390332;32;20206;-63
2021/10/17 21:55:15;;;;;;;7.97;4.22;;;;;;;;;;4391800;32;20097;-62
2021/10/17 21:57:41;;;;;;;11.95;3.83;;;;;;;;;;4391879;32;20117;-62
2021/10/17 22:00:16;;;;;;;7.40;3.95;;;;;;;;;;4391525;32;20144;-63
2021/10/17 22:02:42;;;;;;;7.53;4.00;;;;;;;;;;4390218;32;20438;-63
2021/10/17 22:05:08;;;;;;;7.72;4.28;;;;;;;;;;4391403;32;20222;-63
2021/10/17 22:07:35;;;;;;;5.07;3.70;;;;;;;;;;4391976;32;20108;-63
2021/10/17 22:10:01;;;;;;;6.40;3.40;;;;;;;;;;4391341;32;20593;-63
2021/10/17 22:12:27;;;;;;;6.40;3.45;;;;;;;;;;4389932;32;20094;-63
2021/10/17 22:14:52;;;;;;;7.85;3.70;;;;;;;;;;4391405;32;20098;-62
2021/10/17 22:17:18;;;;;;;5.75;2.95;;;;;;;;;;4392352;32;20217;-63
2021/10/17 22:19:44;;;;;;;7.50;3.67;;;;;;;;;;4393654;32;20522;-63
2021/10/17 22:22:10;;;;;;;3.95;3.22;;;;;;;;;;4394008;32;20524;-63
2021/10/17 22:24:36;;;;;;;5.53;3.20;;;;;;;;;;4394013;32;20129;-63
2021/10/17 22:27:02;;;;;;;6.53;3.80;;;;;;;;;;4393728;32;20222;-63
2021/10/17 22:29:28;;;;;;;9.48;4.03;;;;;;;;;;4393514;32;20101;-63
2021/10/17 22:31:54;;;;;;;8.85;4.15;;;;;;;;;;4393864;32;20124;-62
2021/10/17 22:34:19;;;;;;;5.70;3.30;;;;;;;;;;4393854;32;20207;-62
2021/10/17 22:36:45;;;;;;;4.40;3.30;;;;;;;;;;4393626;32;20464;-63
2021/10/17 22:39:11;;;;;;;7.05;3.72;;;;;;;;;;4393588;32;20185;-64
2021/10/17 22:41:37;;;;;;;6.60;4.00;;;;;;;;;;4393707;32;20507;-63
2021/10/17 22:44:03;;;;;;;6.75;4.28;;;;;;;;;;4393745;32;20109;-63
2021/10/17 22:46:29;;;;;;;5.90;3.97;;;;;;;;;;4393635;32;20104;-63
2021/10/17 22:48:56;;;;;;;5.72;3.60;;;;;;;;;;4393390;32;20488;-63
2021/10/17 22:51:21;;;;;;;6.32;4.50;;;;;;;;;;4393434;32;20101;-61
2021/10/17 22:53:47;;;;;;;8.18;4.47;;;;;;;;;;4391904;32;20180;-63
2021/10/17 22:56:13;;;;;;;6.20;3.80;;;;;;;;;;4392171;32;20112;-62
2021/10/17 22:58:39;;;;;;;5.90;4.40;;;;;;;;;;4393314;32;20128;-63
2021/10/17 23:01:05;;;;;;;8.10;4.78;;;;;;;;;;4393431;32;20109;-64
2021/10/17 23:03:33;;;;;;;5.68;4.40;;;;;;;;;;4392692;32;20106;-63
2021/10/17 23:05:59;;;;;;;11.02;4.65;;;;;;;;;;4392329;32;20117;-63
2021/10/17 23:08:25;;;;;;;9.85;5.07;;;;;;;;;;4393370;32;20111;-62
2021/10/17 23:10:51;;;;;;;9.45;4.85;;;;;;;;;;4393214;32;20512;-62
2021/10/17 23:13:17;;;;;;;6.18;4.12;;;;;;;;;;4393325;32;20109;-63
2021/10/17 23:15:43;;;;;;;7.43;4.45;;;;;;;;;;4393280;32;20118;-63
2021/10/17 23:18:09;;;;;;;6.05;4.65;;;;;;;;;;4393186;32;20145;-64
2021/10/17 23:20:35;;;;;;;8.27;4.47;;;;;;;;;;4393080;32;20110;-64
2021/10/17 23:23:01;;;;;;;9.45;4.87;;;;;;;;;;4391846;32;20636;-64
2021/10/17 23:25:27;;;;;;;6.05;4.32;;;;;;;;;;4391759;32;20617;-64
2021/10/17 23:27:53;;;;;;;8.07;4.53;;;;;;;;;;4393611;32;20463;-63
2021/10/17 23:30:19;;;;;;;10.05;4.40;;;;;;;;;;4393074;32;20119;-63
2021/10/17 23:32:45;;;;;;;9.75;4.37;;;;;;;;;;4393178;32;20520;-62
2021/10/17 23:35:11;;;;;;;7.35;4.62;;;;;;;;;;4393030;32;20120;-63
2021/10/17 23:37:37;;;;;;;11.27;4.95;;;;;;;;;;4391960;32;20090;-63
2021/10/17 23:40:04;;;;;;;7.37;4.50;;;;;;;;;;4379094;32;20081;-63
2021/10/17 23:42:30;;;;;;;6.03;4.90;;;;;;;;;;4393152;32;20117;-63